createdAt,value
2022-11-24T00:00:52.798Z,0
2022-11-24T00:01:53.185Z,0
2022-11-24T00:02:54.634Z,0
2022-11-24T00:03:52.735Z,0
2022-11-24T00:04:53.251Z,0
2022-11-24T00:05:52.453Z,0
2022-11-24T00:06:52.549Z,0
2022-11-24T00:07:53.345Z,0
2022-11-24T00:08:53.277Z,0
2022-11-24T00:09:52.781Z,0
2022-11-24T00:10:52.989Z,0
2022-11-24T00:11:52.967Z,0
2022-11-24T00:12:52.955Z,0
2022-11-24T00:13:53.200Z,0
2022-11-24T00:14:52.938Z,0
2022-11-24T00:15:53.166Z,0
2022-11-24T00:16:53.551Z,0
2022-11-24T00:17:53.153Z,0
2022-11-24T00:18:53.183Z,0
2022-11-24T00:19:52.834Z,0
2022-11-24T00:20:52.830Z,0
2022-11-24T00:21:53.049Z,0
2022-11-24T00:22:53.040Z,0
2022-11-24T00:23:52.931Z,0
2022-11-24T00:24:52.234Z,0
2022-11-24T00:25:52.979Z,0
2022-11-24T00:26:52.715Z,0
2022-11-24T00:27:52.455Z,0
2022-11-24T00:28:52.663Z,0
2022-11-24T00:29:52.504Z,0
2022-11-24T00:30:52.964Z,0
2022-11-24T00:31:52.358Z,0
2022-11-24T00:32:52.602Z,0
2022-11-24T00:33:52.888Z,0
2022-11-24T00:34:52.895Z,0
2022-11-24T00:35:52.552Z,0
2022-11-24T00:36:52.292Z,0
2022-11-24T00:37:52.259Z,0
2022-11-24T00:38:52.498Z,0
2022-11-24T00:39:52.473Z,0
2022-11-24T00:40:52.200Z,0
2022-11-24T00:41:52.443Z,0
2022-11-24T00:42:52.572Z,0
2022-11-24T00:43:52.660Z,0
2022-11-24T00:44:51.877Z,0
2022-11-24T00:45:53.271Z,0
2022-11-24T00:46:52.964Z,0
2022-11-24T00:47:52.074Z,0
2022-11-24T00:48:52.323Z,0
2022-11-24T00:49:52.445Z,0
2022-11-24T00:50:52.612Z,0
2022-11-24T00:51:52.267Z,0
2022-11-24T00:52:52.530Z,0
2022-11-24T00:53:52.244Z,0
2022-11-24T00:54:52.053Z,0
2022-11-24T00:55:52.185Z,0
2022-11-24T00:56:52.175Z,0
2022-11-24T00:57:51.908Z,0
2022-11-24T00:58:52.147Z,0
2022-11-24T00:59:52.118Z,0
2022-11-24T01:00:51.598Z,0
2022-11-24T01:01:52.488Z,0
2022-11-24T01:02:52.135Z,0
2022-11-24T01:03:52.360Z,0
2022-11-24T01:04:52.189Z,0
2022-11-24T01:05:52.042Z,0
2022-11-24T01:06:52.490Z,0
2022-11-24T01:07:51.943Z,0
2022-11-24T01:08:52.400Z,0
2022-11-24T01:09:52.262Z,0
2022-11-24T01:10:51.826Z,0
2022-11-24T01:11:52.058Z,0
2022-11-24T01:12:51.798Z,0
2022-11-24T01:13:52.050Z,0
2022-11-24T01:14:51.863Z,0
2022-11-24T01:15:52.583Z,0
2022-11-24T01:16:51.974Z,0
2022-11-24T01:17:51.958Z,0
2022-11-24T01:18:51.700Z,0
2022-11-24T01:19:52.343Z,0
2022-11-24T01:20:51.899Z,0
2022-11-24T01:21:51.381Z,0
2022-11-24T01:22:51.951Z,0
2022-11-24T01:23:52.121Z,0
2022-11-24T01:24:52.112Z,0
2022-11-24T01:25:52.071Z,0
2022-11-24T01:26:51.802Z,0
2022-11-24T01:27:51.790Z,0
2022-11-24T01:28:54.602Z,0
2022-11-24T01:29:51.503Z,0
2022-11-24T01:30:51.755Z,0
2022-11-24T01:31:51.730Z,0
2022-11-24T01:32:51.709Z,0
2022-11-24T01:33:51.675Z,0
2022-11-24T01:34:51.764Z,0
2022-11-24T01:35:51.644Z,0
2022-11-24T01:37:51.353Z,0
2022-11-24T01:38:51.926Z,0
2022-11-24T01:39:51.567Z,0
2022-11-24T01:40:51.572Z,0
2022-11-24T01:41:51.802Z,0
2022-11-24T01:42:51.788Z,0
2022-11-24T01:43:51.498Z,0
2022-11-24T01:44:51.658Z,0
2022-11-24T01:45:51.648Z,0
2022-11-24T01:46:51.200Z,0
2022-11-24T01:47:51.810Z,0
2022-11-24T01:48:51.153Z,0
2022-11-24T01:49:51.496Z,0
2022-11-24T01:50:51.403Z,0
2022-11-24T01:51:51.116Z,0
2022-11-24T01:52:51.584Z,0
2022-11-24T01:53:51.314Z,0
2022-11-24T01:54:51.801Z,0
2022-11-24T01:55:51.637Z,0
2022-11-24T01:56:51.034Z,0
2022-11-24T01:57:50.999Z,0
2022-11-24T01:58:51.239Z,0
2022-11-24T01:59:51.522Z,0
2022-11-24T02:00:51.197Z,0
2022-11-24T02:01:51.810Z,0
2022-11-24T02:02:51.737Z,0
2022-11-24T02:03:51.471Z,0
2022-11-24T02:04:52.118Z,0
2022-11-24T02:05:52.191Z,0
2022-11-24T02:06:51.672Z,0
2022-11-24T02:07:52.283Z,0
2022-11-24T02:08:51.374Z,0
2022-11-24T02:09:51.959Z,0
2022-11-24T02:10:51.930Z,0
2022-11-24T02:11:51.842Z,0
2022-11-24T02:12:52.101Z,0
2022-11-24T02:13:51.542Z,0
2022-11-24T02:14:51.933Z,0
2022-11-24T02:15:52.043Z,0
2022-11-24T02:16:51.757Z,0
2022-11-24T02:17:51.731Z,0
2022-11-24T02:18:51.712Z,0
2022-11-24T02:19:52.101Z,0
2022-11-24T02:20:51.689Z,0
2022-11-24T02:21:51.654Z,0
2022-11-24T02:22:51.391Z,0
2022-11-24T02:23:51.882Z,0
2022-11-24T02:24:51.508Z,0
2022-11-24T02:25:51.588Z,0
2022-11-24T02:26:51.901Z,0
2022-11-24T02:27:59.016Z,0
2022-11-24T02:28:51.815Z,0
2022-11-24T02:29:51.609Z,0
2022-11-24T02:30:51.720Z,0
2022-11-24T02:31:51.750Z,0
2022-11-24T02:32:51.469Z,0
2022-11-24T02:33:51.701Z,0
2022-11-24T02:34:51.527Z,0
2022-11-24T02:35:51.678Z,0
2022-11-24T02:36:51.145Z,0
2022-11-24T02:37:51.370Z,0
2022-11-24T02:38:51.101Z,0
2022-11-24T02:39:51.242Z,0
2022-11-24T02:40:51.325Z,0
2022-11-24T02:41:51.559Z,0
2022-11-24T02:42:51.603Z,0
2022-11-24T02:43:51.013Z,0
2022-11-24T02:44:51.130Z,0
2022-11-24T02:45:51.033Z,0
2022-11-24T02:46:51.057Z,0
2022-11-24T02:47:51.209Z,0
2022-11-24T02:48:50.936Z,0
2022-11-24T02:49:51.159Z,0
2022-11-24T02:50:51.397Z,0
2022-11-24T02:51:51.378Z,0
2022-11-24T02:52:50.849Z,0
2022-11-24T02:53:51.343Z,0
2022-11-24T02:54:51.227Z,0
2022-11-24T02:55:51.089Z,0
2022-11-24T02:56:51.290Z,0
2022-11-24T02:57:51.034Z,0
2022-11-24T02:58:51.322Z,0
2022-11-24T02:59:50.983Z,0
2022-11-24T03:00:51.247Z,0
2022-11-24T03:01:51.091Z,0
2022-11-24T03:02:51.482Z,0
2022-11-24T03:03:50.483Z,0
2022-11-24T03:04:51.006Z,0
2022-11-24T03:05:50.638Z,0
2022-11-24T03:06:50.617Z,0
2022-11-24T03:07:51.444Z,0
2022-11-24T03:08:50.819Z,0
2022-11-24T03:09:50.955Z,0
2022-11-24T03:10:50.540Z,0
2022-11-24T03:11:50.512Z,0
2022-11-24T03:12:50.754Z,0
2022-11-24T03:13:50.739Z,0
2022-11-24T03:14:51.002Z,0
2022-11-24T03:15:51.076Z,0
2022-11-24T03:16:50.718Z,0
2022-11-24T03:17:50.919Z,0
2022-11-24T03:18:50.641Z,0
2022-11-24T03:19:50.982Z,0
2022-11-24T03:20:50.883Z,0
2022-11-24T03:21:50.344Z,0
2022-11-24T03:22:50.569Z,0
2022-11-24T03:23:50.564Z,0
2022-11-24T03:24:50.544Z,0
2022-11-24T03:25:50.517Z,0
2022-11-24T03:26:50.506Z,0
2022-11-24T03:27:50.496Z,0
2022-11-24T03:28:50.223Z,0
2022-11-24T03:29:50.703Z,0
2022-11-24T03:30:50.807Z,0
2022-11-24T03:31:50.534Z,0
2022-11-24T03:32:50.427Z,0
2022-11-24T03:50:24.494Z,0
2022-11-24T03:51:24.116Z,0
2022-11-24T03:52:23.828Z,0
2022-11-24T03:53:23.828Z,0
2022-11-24T03:54:24.313Z,0
2022-11-24T03:55:24.023Z,0
2022-11-24T03:56:24.013Z,0
2022-11-24T03:57:23.988Z,0
2022-11-24T03:58:24.229Z,0
2022-11-24T03:59:23.702Z,0
2022-11-24T04:00:23.780Z,0
2022-11-24T04:01:24.426Z,0
2022-11-24T04:02:24.101Z,0
2022-11-24T04:03:23.895Z,0
2022-11-24T04:04:23.858Z,0
2022-11-24T04:05:24.092Z,0
2022-11-24T04:06:24.186Z,0
2022-11-24T04:07:23.968Z,0
2022-11-24T04:08:23.784Z,0
2022-11-24T04:09:24.017Z,0
2022-11-24T04:10:23.491Z,0
2022-11-24T04:11:23.738Z,0
2022-11-24T04:12:23.708Z,0
2022-11-24T04:13:23.941Z,0
2022-11-24T04:14:23.690Z,0
2022-11-24T04:15:23.662Z,0
2022-11-24T04:16:23.854Z,0
2022-11-24T04:17:23.649Z,0
2022-11-24T04:18:23.938Z,0
2022-11-24T04:19:23.584Z,0
2022-11-24T04:20:23.311Z,0
2022-11-24T04:21:23.554Z,0
2022-11-24T04:22:23.887Z,0
2022-11-24T04:23:23.268Z,0
2022-11-24T04:24:23.234Z,0
2022-11-24T04:25:23.894Z,0
2022-11-24T04:26:23.458Z,0
2022-11-24T04:27:23.453Z,0
2022-11-24T04:28:23.421Z,0
2022-11-24T04:29:23.655Z,0
2022-11-24T04:30:23.677Z,0
2022-11-24T04:31:23.838Z,0
2022-11-24T04:32:23.603Z,0
2022-11-24T04:33:23.654Z,0
2022-11-24T04:34:23.060Z,0
2022-11-24T04:35:23.665Z,0
2022-11-24T04:36:23.996Z,0
2022-11-24T04:37:24.230Z,0
2022-11-24T04:39:31.537Z,0
2022-11-24T04:40:41.306Z,0
2022-11-24T04:41:41.016Z,0
2022-11-24T04:42:41.524Z,0
2022-11-24T04:43:47.101Z,0
2022-11-24T04:44:42.099Z,0
2022-11-24T04:45:41.619Z,0
2022-11-24T04:46:40.982Z,0
2022-11-24T04:47:41.181Z,0
2022-11-24T04:48:40.943Z,0
2022-11-24T04:49:41.128Z,0
2022-11-24T04:50:40.868Z,0
2022-11-24T04:51:41.105Z,0
2022-11-24T04:52:40.820Z,0
2022-11-24T04:53:41.335Z,0
2022-11-24T04:54:41.561Z,0
2022-11-24T04:55:41.432Z,0
2022-11-24T04:56:41.304Z,0
2022-11-24T04:57:41.243Z,0
2022-11-24T04:58:42.249Z,0
2022-11-24T04:59:40.961Z,0
2022-11-24T05:00:40.783Z,0
2022-11-24T05:01:40.918Z,0
2022-11-24T05:02:40.654Z,0
2022-11-24T05:03:41.135Z,0
2022-11-24T05:04:41.947Z,0
2022-11-24T05:05:40.951Z,0
2022-11-24T05:06:40.838Z,0
2022-11-24T05:07:41.303Z,0
2022-11-24T05:08:40.802Z,0
2022-11-24T05:10:05.674Z,0
2022-11-24T05:10:40.618Z,0
2022-11-24T05:11:40.752Z,0
2022-11-24T05:12:40.485Z,0
2022-11-24T05:13:40.701Z,0
2022-11-24T05:14:41.388Z,0
2022-11-24T05:15:40.609Z,0
2022-11-24T05:16:40.952Z,0
2022-11-24T05:17:40.390Z,0
2022-11-24T05:18:40.633Z,0
2022-11-24T05:19:40.751Z,0
2022-11-24T05:20:40.353Z,0
2022-11-24T05:21:40.312Z,0
2022-11-24T05:22:40.309Z,0
2022-11-24T05:23:40.550Z,0
2022-11-24T05:24:40.913Z,0
2022-11-24T05:25:47.396Z,0
2022-11-24T05:26:40.153Z,0
2022-11-24T05:27:40.471Z,0
2022-11-24T05:28:40.464Z,0
2022-11-24T05:32:07.651Z,0
2022-11-24T05:32:37.702Z,0
2022-11-24T05:33:38.233Z,0
2022-11-24T05:34:38.974Z,0
2022-11-24T05:35:37.634Z,0
2022-11-24T05:36:37.890Z,0
2022-11-24T05:37:37.858Z,0
2022-11-24T05:38:37.842Z,0
2022-11-24T05:39:37.843Z,0
2022-11-24T05:40:37.559Z,0
2022-11-24T05:41:38.156Z,0
2022-11-24T05:42:40.862Z,0
2022-11-24T05:43:37.761Z,0
2022-11-24T05:44:38.261Z,0
2022-11-24T05:45:37.723Z,0
2022-11-24T05:46:37.956Z,0
2022-11-24T05:47:37.800Z,0
2022-11-24T05:48:37.420Z,0
2022-11-24T05:49:37.916Z,0
2022-11-24T05:50:37.392Z,0
2022-11-24T05:51:37.367Z,0
2022-11-24T05:52:37.622Z,0
2022-11-24T05:53:37.089Z,0
2022-11-24T05:54:38.308Z,0
2022-11-24T05:55:37.046Z,0
2022-11-24T05:56:37.791Z,0
2022-11-24T05:57:37.901Z,0
2022-11-24T05:58:37.773Z,0
2022-11-24T05:59:37.234Z,0
2022-11-24T06:00:37.742Z,0
2022-11-24T06:01:37.805Z,0
2022-11-24T06:02:38.310Z,0
2022-11-24T06:03:36.918Z,0
2022-11-24T06:04:38.286Z,0
2022-11-24T06:05:37.445Z,0
2022-11-24T06:06:37.624Z,0
2022-11-24T06:07:37.450Z,0
2022-11-24T06:08:38.529Z,0
2022-11-24T06:09:37.067Z,0
2022-11-24T06:10:37.425Z,0
2022-11-24T06:11:37.299Z,0
2022-11-24T06:12:37.275Z,0
2022-11-24T06:13:38.567Z,0
2022-11-24T06:14:37.884Z,0
2022-11-24T06:15:37.224Z,4
2022-11-24T06:16:37.763Z,4
2022-11-24T06:17:36.939Z,4
2022-11-24T06:18:36.921Z,4
2022-11-24T06:19:43.853Z,8
2022-11-24T06:20:39.793Z,8
2022-11-24T06:21:37.377Z,8
2022-11-24T06:22:37.102Z,8
2022-11-24T06:23:37.090Z,12
2022-11-24T06:24:38.070Z,12
2022-11-24T06:25:37.060Z,16
2022-11-24T06:26:36.811Z,20
2022-11-24T06:27:36.772Z,20
2022-11-24T06:28:36.999Z,24
2022-11-24T06:29:37.446Z,28
2022-11-24T06:30:37.241Z,32
2022-11-24T06:31:36.993Z,32
2022-11-24T06:32:36.946Z,40
2022-11-24T06:33:36.931Z,48
2022-11-24T06:34:38.127Z,56
2022-11-24T06:35:36.630Z,56
2022-11-24T06:36:36.869Z,56
2022-11-24T06:37:36.868Z,72
2022-11-24T06:38:36.587Z,80
2022-11-24T06:39:36.831Z,96
2022-11-24T06:40:36.551Z,112
2022-11-24T06:41:36.281Z,132
2022-11-24T06:42:37.030Z,156
2022-11-24T06:43:36.245Z,172
2022-11-24T06:44:38.032Z,160
2022-11-24T06:45:37.396Z,176
2022-11-24T06:46:36.733Z,176
2022-11-24T06:47:36.704Z,176
2022-11-24T06:48:36.702Z,196
2022-11-24T06:49:36.678Z,208
2022-11-24T06:50:40.425Z,232
2022-11-24T06:51:36.363Z,240
2022-11-24T06:52:36.862Z,260
2022-11-24T06:53:36.619Z,268
2022-11-24T06:54:37.596Z,256
2022-11-24T06:55:36.555Z,296
2022-11-24T06:56:36.293Z,288
2022-11-24T06:57:36.783Z,316
2022-11-24T06:58:36.001Z,316
2022-11-24T06:59:36.256Z,324
2022-11-24T07:00:36.574Z,376
2022-11-24T07:01:37.142Z,380
2022-11-24T07:02:38.841Z,384
2022-11-24T07:03:36.732Z,360
2022-11-24T07:04:37.662Z,396
2022-11-24T07:05:36.136Z,384
2022-11-24T07:06:36.382Z,368
2022-11-24T07:07:36.582Z,396
2022-11-24T07:08:36.582Z,420
2022-11-24T07:09:36.075Z,404
2022-11-24T07:10:36.737Z,440
2022-11-24T07:11:36.054Z,476
2022-11-24T07:12:36.274Z,476
2022-11-24T07:13:36.254Z,480
2022-11-24T07:14:37.376Z,476
2022-11-24T07:15:36.469Z,480
2022-11-24T07:16:36.876Z,520
2022-11-24T07:17:36.554Z,488
2022-11-24T07:18:36.176Z,512
2022-11-24T07:19:36.159Z,496
2022-11-24T07:20:36.220Z,464
2022-11-24T07:21:35.909Z,524
2022-11-24T07:22:36.103Z,508
2022-11-24T07:23:36.080Z,492
2022-11-24T07:24:36.842Z,456
2022-11-24T07:25:36.062Z,448
2022-11-24T07:26:36.054Z,472
2022-11-24T07:27:35.769Z,368
2022-11-24T07:28:36.292Z,336
2022-11-24T07:29:35.999Z,300
2022-11-24T07:30:35.652Z,292
2022-11-24T07:31:36.625Z,280
2022-11-24T07:32:36.195Z,344
2022-11-24T07:33:36.307Z,384
2022-11-24T07:34:36.294Z,412
2022-11-24T07:35:35.886Z,400
2022-11-24T07:36:36.131Z,292
2022-11-24T07:37:38.858Z,304
2022-11-24T07:38:35.872Z,324
2022-11-24T07:39:35.829Z,340
2022-11-24T07:40:36.064Z,308
2022-11-24T07:41:36.047Z,320
2022-11-24T07:42:35.825Z,364
2022-11-24T07:43:35.755Z,400
2022-11-24T07:44:36.121Z,444
2022-11-24T07:45:36.261Z,552
2022-11-24T07:46:36.009Z,528
2022-11-24T07:47:35.991Z,600
2022-11-24T07:48:35.947Z,624
2022-11-24T07:49:36.050Z,672
2022-11-24T07:50:35.892Z,656
2022-11-24T07:51:35.374Z,596
2022-11-24T07:52:35.634Z,668
2022-11-24T07:53:35.884Z,592
2022-11-24T07:54:36.393Z,564
2022-11-24T07:55:35.815Z,632
2022-11-24T07:56:35.542Z,724
2022-11-24T07:57:35.541Z,812
2022-11-24T07:58:39.798Z,804
2022-11-24T07:59:35.748Z,796
2022-11-24T08:00:35.502Z,708
2022-11-24T08:01:35.701Z,712
2022-11-24T08:02:35.196Z,740
2022-11-24T08:03:35.788Z,744
2022-11-24T08:04:36.366Z,844
2022-11-24T08:05:38.431Z,1056
2022-11-24T08:06:49.813Z,1496
2022-11-24T08:07:35.496Z,1704
2022-11-24T08:08:35.391Z,1780
2022-11-24T08:09:35.092Z,2036
2022-11-24T08:10:35.318Z,1880
2022-11-24T08:11:35.318Z,1972
2022-11-24T08:12:35.293Z,1836
2022-11-24T08:13:35.542Z,1744
2022-11-24T08:14:36.139Z,1832
2022-11-24T08:15:35.516Z,1916
2022-11-24T08:16:35.628Z,1984
2022-11-24T08:17:34.952Z,1976
2022-11-24T08:18:35.448Z,1796
2022-11-24T08:19:35.432Z,1516
2022-11-24T08:20:35.411Z,1272
2022-11-24T08:21:35.515Z,1136
2022-11-24T08:22:35.139Z,1088
2022-11-24T08:23:35.113Z,1012
2022-11-24T08:24:35.677Z,904
2022-11-24T08:25:35.074Z,896
2022-11-24T08:26:35.060Z,880
2022-11-24T08:27:35.313Z,1008
2022-11-24T08:28:34.782Z,1192
2022-11-24T08:29:35.278Z,1276
2022-11-24T08:30:34.768Z,1364
2022-11-24T08:31:36.258Z,1492
2022-11-24T08:32:35.279Z,1564
2022-11-24T08:33:34.947Z,1704
2022-11-24T08:34:35.638Z,2132
2022-11-24T08:35:35.175Z,2164
2022-11-24T08:36:35.171Z,2324
2022-11-24T08:37:35.251Z,2672
2022-11-24T08:38:35.135Z,2796
2022-11-24T08:39:34.874Z,2884
2022-11-24T08:40:34.584Z,2108
2022-11-24T08:41:35.134Z,2308
2022-11-24T08:42:35.062Z,2348
2022-11-24T08:43:34.301Z,2600
2022-11-24T08:44:35.489Z,2416
2022-11-24T08:45:44.900Z,2312
2022-11-24T08:46:34.858Z,2796
2022-11-24T08:47:35.021Z,2884
2022-11-24T08:48:34.604Z,3228
2022-11-24T08:49:34.501Z,3460
2022-11-24T08:50:34.455Z,3512
2022-11-24T08:51:34.684Z,3560
2022-11-24T08:52:34.899Z,3428
2022-11-24T08:53:35.250Z,3280
2022-11-24T08:54:35.054Z,3356
2022-11-24T08:55:34.624Z,3388
2022-11-24T08:56:34.350Z,3376
2022-11-24T08:57:34.576Z,3340
2022-11-24T08:58:34.780Z,3496
2022-11-24T08:59:34.908Z,3712
2022-11-24T09:00:34.540Z,3804
2022-11-24T09:01:34.905Z,3636
2022-11-24T09:02:34.763Z,3716
2022-11-24T09:03:34.648Z,3708
2022-11-24T09:04:35.845Z,3656
2022-11-24T09:06:04.485Z,3492
2022-11-24T09:06:34.680Z,3384
2022-11-24T09:07:34.403Z,3184
2022-11-24T09:08:34.547Z,2956
2022-11-24T09:09:34.756Z,2736
2022-11-24T09:10:34.647Z,2632
2022-11-24T09:11:34.124Z,2556
2022-11-24T09:12:34.608Z,2488
2022-11-24T09:13:34.437Z,2464
2022-11-24T09:14:35.919Z,2384
2022-11-24T09:15:35.547Z,2324
2022-11-24T09:16:35.057Z,2240
2022-11-24T09:17:35.265Z,2116
2022-11-24T09:18:37.436Z,2020
2022-11-24T09:19:35.726Z,1992
2022-11-24T09:20:35.479Z,2068
2022-11-24T09:21:34.996Z,2164
2022-11-24T09:22:35.185Z,2344
2022-11-24T09:23:35.199Z,2688
2022-11-24T09:24:35.423Z,3024
2022-11-24T09:25:35.516Z,3216
2022-11-24T09:26:34.874Z,3344
2022-11-24T09:27:35.127Z,3528
2022-11-24T09:28:34.840Z,3664
2022-11-24T09:29:35.886Z,3708
2022-11-24T09:30:35.568Z,3736
2022-11-24T09:31:35.397Z,3808
2022-11-24T09:32:35.162Z,3780
2022-11-24T09:33:35.265Z,3780
2022-11-24T09:34:34.505Z,3680
2022-11-24T09:35:35.012Z,3480
2022-11-24T09:36:34.970Z,3392
2022-11-24T09:37:39.466Z,3296
2022-11-24T09:38:34.686Z,3360
2022-11-24T09:39:36.077Z,3692
2022-11-24T09:40:34.667Z,3680
2022-11-24T09:41:35.399Z,3776
2022-11-24T09:42:35.100Z,3880
2022-11-24T09:43:34.621Z,3736
2022-11-24T09:44:34.865Z,3528
2022-11-24T09:46:12.054Z,3684
2022-11-24T09:46:35.112Z,3552
2022-11-24T09:47:34.990Z,3464
2022-11-24T09:48:34.805Z,3096
2022-11-24T09:49:35.385Z,3232
2022-11-24T09:50:34.760Z,3448
2022-11-24T09:51:35.006Z,3620
2022-11-24T09:52:34.377Z,3532
2022-11-24T09:53:34.718Z,3396
2022-11-24T09:54:34.702Z,3300
2022-11-24T09:55:34.957Z,3432
2022-11-24T09:56:34.701Z,3496
2022-11-24T09:57:42.336Z,3116
2022-11-24T09:58:34.144Z,3156
2022-11-24T09:59:35.477Z,3664
2022-11-24T10:00:34.384Z,3760
2022-11-24T10:01:34.855Z,3292
2022-11-24T10:02:34.327Z,4168
2022-11-24T10:03:34.576Z,4656
2022-11-24T10:04:34.816Z,4200
2022-11-24T10:05:34.809Z,3880
2022-11-24T10:06:34.788Z,3528
2022-11-24T10:07:34.707Z,3032
2022-11-24T10:08:34.262Z,3000
2022-11-24T10:09:35.754Z,3028
2022-11-24T10:10:34.813Z,3076
2022-11-24T10:11:34.526Z,3240
2022-11-24T10:12:34.709Z,3544
2022-11-24T10:13:34.809Z,3404
2022-11-24T10:14:34.443Z,3712
2022-11-24T10:15:34.359Z,4096
2022-11-24T10:16:34.914Z,4336
2022-11-24T10:17:34.640Z,3876
2022-11-24T10:18:34.097Z,3516
2022-11-24T10:19:44.558Z,3664
2022-11-24T10:20:34.078Z,3908
2022-11-24T10:21:34.386Z,3456
2022-11-24T10:22:34.607Z,3772
2022-11-24T10:23:40.049Z,3996
2022-11-24T10:24:34.287Z,4260
2022-11-24T10:25:34.527Z,4636
2022-11-24T10:26:34.497Z,4348
2022-11-24T10:27:33.725Z,4724
2022-11-24T10:28:34.235Z,5632
2022-11-24T10:29:35.246Z,6480
2022-11-24T10:30:34.201Z,4592
2022-11-24T10:31:34.640Z,4040
2022-11-24T10:32:33.924Z,4132
2022-11-24T10:33:37.415Z,3824
2022-11-24T10:34:34.385Z,3496
2022-11-24T10:35:34.122Z,3840
2022-11-24T10:36:34.110Z,3528
2022-11-24T10:37:34.363Z,3140
2022-11-24T10:38:34.078Z,2636
2022-11-24T10:39:34.702Z,2772
2022-11-24T10:41:03.021Z,2496
2022-11-24T10:41:33.814Z,2596
2022-11-24T10:42:34.025Z,3120
2022-11-24T10:43:34.279Z,2664
2022-11-24T10:44:33.743Z,2528
2022-11-24T10:45:34.340Z,2328
2022-11-24T10:46:42.031Z,1972
2022-11-24T10:47:33.955Z,1796
2022-11-24T10:48:33.939Z,1928
2022-11-24T10:49:34.772Z,2432
2022-11-24T10:50:33.918Z,3092
2022-11-24T10:51:34.053Z,3620
2022-11-24T10:52:33.884Z,3560
2022-11-24T10:53:33.876Z,3100
2022-11-24T10:54:33.867Z,2720
2022-11-24T10:55:33.837Z,2668
2022-11-24T10:56:33.577Z,2572
2022-11-24T10:57:34.065Z,2660
2022-11-24T10:58:40.855Z,2452
2022-11-24T10:59:33.978Z,2208
2022-11-24T11:00:33.765Z,1700
2022-11-24T11:01:34.615Z,1704
2022-11-24T11:02:33.941Z,2120
2022-11-24T11:03:33.717Z,2296
2022-11-24T11:04:33.979Z,1996
2022-11-24T11:05:33.994Z,1756
2022-11-24T11:06:33.689Z,2020
2022-11-24T11:07:33.687Z,2536
2022-11-24T11:08:33.439Z,2840
2022-11-24T11:09:33.767Z,3272
2022-11-24T11:10:33.634Z,3400
2022-11-24T11:11:33.620Z,3388
2022-11-24T11:13:03.605Z,3220
2022-11-24T11:13:33.318Z,3176
2022-11-24T11:14:33.836Z,3148
2022-11-24T11:15:34.348Z,3096
2022-11-24T11:16:33.723Z,3056
2022-11-24T11:17:33.893Z,3012
2022-11-24T11:18:33.556Z,2836
2022-11-24T11:20:04.505Z,2636
2022-11-24T11:20:33.232Z,2552
2022-11-24T11:21:33.484Z,2464
2022-11-24T11:22:33.224Z,2460
2022-11-24T11:23:33.448Z,2552
2022-11-24T11:24:33.178Z,2720
2022-11-24T11:25:33.423Z,2836
2022-11-24T11:26:33.647Z,2736
2022-11-24T11:27:33.381Z,2684
2022-11-24T11:28:33.380Z,2832
2022-11-24T11:31:20.246Z,3848
2022-11-24T11:31:31.350Z,4008
2022-11-24T11:34:03.563Z,4276
2022-11-24T11:34:34.615Z,4176
2022-11-24T11:35:19.742Z,4008
2022-11-24T11:36:19.494Z,4168
2022-11-24T11:37:19.201Z,4324
2022-11-24T11:38:19.439Z,4224
2022-11-24T11:39:19.432Z,4084
2022-11-24T11:40:19.924Z,3868
2022-11-24T11:41:19.639Z,3856
2022-11-24T11:43:08.340Z,3828
2022-11-24T11:43:19.367Z,3792
2022-11-24T11:44:19.091Z,3584
2022-11-24T11:45:19.532Z,3640
2022-11-24T11:46:20.402Z,3624
2022-11-24T11:47:19.247Z,3360
2022-11-24T11:48:19.322Z,2876
2022-11-24T11:49:19.684Z,2552
2022-11-24T11:50:19.830Z,2536
2022-11-24T11:51:30.910Z,2772
2022-11-24T11:52:19.827Z,3252
2022-11-24T11:53:19.819Z,3952
2022-11-24T11:54:19.330Z,4636
2022-11-24T11:55:19.536Z,4980
2022-11-24T11:56:19.268Z,5088
2022-11-24T11:57:19.250Z,5244
2022-11-24T11:58:19.483Z,5320
2022-11-24T11:59:19.850Z,5292
2022-11-24T12:00:19.863Z,5220
2022-11-24T12:01:19.195Z,5016
2022-11-24T12:02:19.817Z,4684
2022-11-24T12:03:19.808Z,4512
2022-11-24T12:04:20.202Z,4160
2022-11-24T12:05:19.748Z,3872
2022-11-24T12:06:19.670Z,3800
2022-11-24T12:07:19.673Z,4084
2022-11-24T12:08:26.527Z,4540
2022-11-24T12:09:27.844Z,4712
2022-11-24T12:10:19.791Z,4832
2022-11-24T12:11:20.272Z,4972
2022-11-24T12:12:20.001Z,4984
2022-11-24T12:13:19.979Z,4888
2022-11-24T12:14:19.978Z,4708
2022-11-24T12:15:19.968Z,4740
2022-11-24T12:16:20.248Z,4828
2022-11-24T12:17:19.668Z,4852
2022-11-24T12:19:02.558Z,4728
2022-11-24T12:19:19.905Z,4716
2022-11-24T12:20:19.947Z,4644
2022-11-24T12:21:27.063Z,4568
2022-11-24T12:22:19.876Z,4568
2022-11-24T12:23:19.597Z,4520
2022-11-24T12:24:20.222Z,4416
2022-11-24T12:25:19.811Z,4276
2022-11-24T12:26:20.054Z,4072
2022-11-24T12:27:27.683Z,3892
2022-11-24T12:28:19.529Z,3780
2022-11-24T12:29:20.017Z,3688
2022-11-24T12:30:19.935Z,3660
2022-11-24T12:31:20.021Z,3584
2022-11-24T12:32:20.302Z,3408
2022-11-24T12:33:19.982Z,3280
2022-11-24T12:34:19.973Z,3176
2022-11-24T12:35:19.952Z,3104
2022-11-24T12:36:19.463Z,3048
2022-11-24T12:37:19.763Z,3036
2022-11-24T12:38:19.680Z,3076
2022-11-24T12:39:19.492Z,3136
2022-11-24T12:40:19.418Z,3188
2022-11-24T12:41:47.289Z,3240
2022-11-24T12:42:19.611Z,3232
2022-11-24T12:43:19.603Z,3132
2022-11-24T12:44:19.850Z,3048
2022-11-24T12:45:19.873Z,2972
2022-11-24T12:46:24.574Z,2884
2022-11-24T12:47:19.816Z,2832
2022-11-24T12:48:19.789Z,2768
2022-11-24T12:49:19.514Z,2700
2022-11-24T12:50:19.520Z,2676
2022-11-24T12:51:19.485Z,2644
2022-11-24T12:52:19.780Z,2632
2022-11-24T12:53:19.785Z,2576
2022-11-24T12:54:19.727Z,2488
2022-11-24T12:55:19.696Z,2364
2022-11-24T12:56:19.169Z,2256
2022-11-24T12:57:19.664Z,2220
2022-11-24T12:58:19.405Z,2268
2022-11-24T12:59:19.630Z,2344
2022-11-24T13:00:19.118Z,2340
2022-11-24T13:01:23.897Z,2136
2022-11-24T13:02:20.031Z,1932
2022-11-24T13:03:19.510Z,1716
2022-11-24T13:04:19.061Z,1636
2022-11-24T13:05:19.595Z,1660
2022-11-24T13:06:19.272Z,1744
2022-11-24T13:07:19.257Z,1856
2022-11-24T13:08:19.540Z,1916
2022-11-24T13:09:19.308Z,1976
2022-11-24T13:10:19.249Z,2060
2022-11-24T13:24:22.483Z,2384
2022-11-24T13:25:20.952Z,2396
2022-11-24T13:26:20.671Z,2428
2022-11-24T13:27:21.031Z,2528
2022-11-24T13:29:01.673Z,2640
2022-11-24T13:29:32.538Z,2624
2022-11-24T13:30:31.092Z,2576
2022-11-24T13:31:31.731Z,2456
2022-11-24T13:32:31.533Z,2332
2022-11-24T13:33:34.120Z,2292
2022-11-24T13:34:31.598Z,2248
2022-11-24T13:35:31.502Z,2244
2022-11-24T13:36:31.487Z,2236
2022-11-24T13:37:41.743Z,2160
2022-11-24T13:38:31.449Z,2064
2022-11-24T13:39:33.764Z,1932
2022-11-24T13:40:30.970Z,1856
2022-11-24T13:41:35.712Z,1784
2022-11-24T13:42:50.489Z,1716
2022-11-24T13:43:31.134Z,1668
2022-11-24T13:44:31.367Z,1588
2022-11-24T13:45:31.082Z,1520
2022-11-24T13:46:31.673Z,1484
2022-11-24T13:47:30.851Z,1480
2022-11-24T13:48:31.050Z,1480
2022-11-24T13:49:31.287Z,1500
2022-11-24T13:50:30.761Z,1544
2022-11-24T13:51:31.012Z,1624
2022-11-24T13:52:31.739Z,1656
2022-11-24T13:53:31.478Z,1648
2022-11-24T13:54:31.205Z,1616
2022-11-24T13:55:31.492Z,1584
2022-11-24T13:56:31.464Z,1564
2022-11-24T13:57:31.701Z,1544
2022-11-24T13:58:31.684Z,1524
2022-11-24T13:59:31.657Z,1528
2022-11-24T14:00:31.628Z,1504
2022-11-24T14:01:31.953Z,1492
2022-11-24T14:02:31.249Z,1444
2022-11-24T14:03:31.222Z,1344
2022-11-24T14:04:39.608Z,1276
2022-11-24T14:05:31.333Z,1244
2022-11-24T14:06:31.321Z,1212
2022-11-24T14:07:31.917Z,1196
2022-11-24T14:08:31.258Z,1176
2022-11-24T14:09:31.246Z,1156
2022-11-24T14:10:31.243Z,1148
2022-11-24T14:11:32.280Z,1144
2022-11-24T14:12:32.491Z,1180
2022-11-24T14:13:32.213Z,1224
2022-11-24T14:14:32.456Z,1248
2022-11-24T14:15:31.919Z,1264
2022-11-24T14:16:32.543Z,1236
2022-11-24T14:17:31.895Z,1180
2022-11-24T14:18:32.383Z,1116
2022-11-24T14:19:37.754Z,1048
2022-11-24T14:20:32.091Z,996
2022-11-24T14:21:31.819Z,964
2022-11-24T14:22:32.333Z,952
2022-11-24T14:23:31.550Z,948
2022-11-24T14:24:32.764Z,936
2022-11-24T14:25:32.278Z,920
2022-11-24T14:26:31.991Z,908
2022-11-24T14:27:32.323Z,888
2022-11-24T14:28:32.372Z,860
2022-11-24T14:29:31.993Z,824
2022-11-24T14:30:31.698Z,792
2022-11-24T14:31:32.343Z,764
2022-11-24T14:32:32.177Z,748
2022-11-24T14:33:31.905Z,744
2022-11-24T14:34:32.332Z,732
2022-11-24T14:35:31.894Z,728